sensor_id;sensor_type;location;lat;lon;timestamp;pressure;altitude;pressure_sealevel;temperature;humidity
64095;BME280;50353;51.420;5.682;2023-12-22T00:00:55;100077.78;;;6.28;100.00
64095;BME280;50353;51.420;5.682;2023-12-22T00:03:20;100085.34;;;6.34;100.00
64095;BME280;50353;51.420;5.682;2023-12-22T00:05:45;100089.47;;;6.54;100.00
64095;BME280;50353;51.420;5.682;2023-12-22T00:08:11;100068.03;;;6.46;100.00
64095;BME280;50353;51.420;5.682;2023-12-22T00:10:36;100093.88;;;6.22;100.00
64095;BME280;50353;51.420;5.682;2023-12-22T00:13:01;100103.38;;;6.24;100.00
64095;BME280;50353;51.420;5.682;2023-12-22T00:15:27;100101.09;;;6.34;100.00
64095;BME280;50353;51.420;5.682;2023-12-22T00:17:52;100099.69;;;6.27;100.00
64095;BME280;50353;51.420;5.682;2023-12-22T00:20:18;100095.41;;;6.42;100.00
64095;BME280;50353;51.420;5.682;2023-12-22T00:22:44;100099.72;;;6.43;100.00
64095;BME280;50353;51.420;5.682;2023-12-22T00:25:09;100105.47;;;6.18;100.00
64095;BME280;50353;51.420;5.682;2023-12-22T00:27:35;100110.31;;;6.41;100.00
64095;BME280;50353;51.420;5.682;2023-12-22T00:30:00;100114.88;;;6.38;100.00
64095;BME280;50353;51.420;5.682;2023-12-22T00:32:25;100112.63;;;6.48;100.00
64095;BME280;50353;51.420;5.682;2023-12-22T00:34:51;100112.34;;;6.52;100.00
64095;BME280;50353;51.420;5.682;2023-12-22T00:37:16;100115.81;;;6.37;100.00
64095;BME280;50353;51.420;5.682;2023-12-22T00:39:42;100130.19;;;6.30;100.00
64095;BME280;50353;51.420;5.682;2023-12-22T00:42:07;100139.44;;;6.53;100.00
64095;BME280;50353;51.420;5.682;2023-12-22T00:44:32;100150.13;;;6.50;100.00
64095;BME280;50353;51.420;5.682;2023-12-22T00:46:58;100136.16;;;6.49;100.00
64095;BME280;50353;51.420;5.682;2023-12-22T00:49:23;100149.66;;;6.09;100.00
64095;BME280;50353;51.420;5.682;2023-12-22T00:51:48;100151.88;;;6.33;100.00
64095;BME280;50353;51.420;5.682;2023-12-22T00:54:14;100149.34;;;6.32;100.00
64095;BME280;50353;51.420;5.682;2023-12-22T00:56:39;100136.00;;;6.03;100.00
64095;BME280;50353;51.420;5.682;2023-12-22T00:59:05;100117.59;;;6.20;100.00
64095;BME280;50353;51.420;5.682;2023-12-22T01:01:30;100117.13;;;6.12;100.00
64095;BME280;50353;51.420;5.682;2023-12-22T01:03:55;100120.66;;;6.29;100.00
64095;BME280;50353;51.420;5.682;2023-12-22T01:06:21;100123.78;;;6.67;100.00
64095;BME280;50353;51.420;5.682;2023-12-22T01:08:46;100139.50;;;6.35;100.00
64095;BME280;50353;51.420;5.682;2023-12-22T01:11:15;100139.00;;;6.45;100.00
64095;BME280;50353;51.420;5.682;2023-12-22T01:13:41;100147.47;;;6.18;100.00
64095;BME280;50353;51.420;5.682;2023-12-22T01:16:06;100147.47;;;6.18;100.00
64095;BME280;50353;51.420;5.682;2023-12-22T01:18:31;100136.81;;;6.37;100.00
64095;BME280;50353;51.420;5.682;2023-12-22T01:20:57;100127.94;;;6.39;100.00
64095;BME280;50353;51.420;5.682;2023-12-22T01:23:22;100131.50;;;6.38;100.00
64095;BME280;50353;51.420;5.682;2023-12-22T01:25:47;100121.50;;;6.45;100.00
64095;BME280;50353;51.420;5.682;2023-12-22T01:28:13;100128.09;;;6.20;100.00
64095;BME280;50353;51.420;5.682;2023-12-22T01:30:38;100122.09;;;6.34;100.00
64095;BME280;50353;51.420;5.682;2023-12-22T01:33:03;100123.09;;;6.32;100.00
64095;BME280;50353;51.420;5.682;2023-12-22T01:35:28;100122.22;;;6.31;100.00
64095;BME280;50353;51.420;5.682;2023-12-22T01:37:54;100119.28;;;6.69;100.00
64095;BME280;50353;51.420;5.682;2023-12-22T01:40:19;100125.13;;;6.90;100.00
64095;BME280;50353;51.420;5.682;2023-12-22T01:42:45;100113.78;;;6.90;100.00
64095;BME280;50353;51.420;5.682;2023-12-22T01:45:11;100109.63;;;7.32;100.00
64095;BME280;50353;51.420;5.682;2023-12-22T01:47:37;100113.28;;;7.44;100.00
64095;BME280;50353;51.420;5.682;2023-12-22T01:50:03;100114.16;;;7.44;100.00
64095;BME280;50353;51.420;5.682;2023-12-22T01:52:29;100119.47;;;7.43;100.00
64095;BME280;50353;51.420;5.682;2023-12-22T01:54:54;100111.16;;;7.20;100.00
64095;BME280;50353;51.420;5.682;2023-12-22T01:57:20;100102.06;;;7.26;100.00
64095;BME280;50353;51.420;5.682;2023-12-22T01:59:48;100112.78;;;7.37;100.00
64095;BME280;50353;51.420;5.682;2023-12-22T02:02:14;100123.28;;;7.53;100.00
64095;BME280;50353;51.420;5.682;2023-12-22T02:04:39;100132.38;;;7.48;100.00
64095;BME280;50353;51.420;5.682;2023-12-22T02:07:06;100138.38;;;7.50;100.00
64095;BME280;50353;51.420;5.682;2023-12-22T02:09:34;100131.69;;;7.44;100.00
64095;BME280;50353;51.420;5.682;2023-12-22T02:11:59;100122.56;;;7.35;100.00
64095;BME280;50353;51.420;5.682;2023-12-22T02:14:25;100131.19;;;7.37;100.00
64095;BME280;50353;51.420;5.682;2023-12-22T02:17:15;100142.84;;;7.64;100.00
64095;BME280;50353;51.420;5.682;2023-12-22T02:19:47;100141.78;;;7.52;100.00
64095;BME280;50353;51.420;5.682;2023-12-22T02:22:13;100142.06;;;7.61;100.00
64095;BME280;50353;51.420;5.682;2023-12-22T02:24:40;100150.06;;;7.60;100.00
64095;BME280;50353;51.420;5.682;2023-12-22T02:29:36;100117.34;;;7.50;100.00
64095;BME280;50353;51.420;5.682;2023-12-22T02:32:07;100116.25;;;7.68;100.00
64095;BME280;50353;51.420;5.682;2023-12-22T02:34:35;100107.19;;;7.43;100.00
64095;BME280;50353;51.420;5.682;2023-12-22T02:37:05;100102.59;;;7.17;100.00
64095;BME280;50353;51.420;5.682;2023-12-22T02:39:32;100122.63;;;7.64;100.00
64095;BME280;50353;51.420;5.682;2023-12-22T02:41:57;100135.09;;;7.60;100.00
64095;BME280;50353;51.420;5.682;2023-12-22T02:44:24;100130.34;;;7.67;100.00
64095;BME280;50353;51.420;5.682;2023-12-22T02:46:50;100143.88;;;7.75;100.00
64095;BME280;50353;51.420;5.682;2023-12-22T02:49:15;100127.44;;;7.72;100.00
64095;BME280;50353;51.420;5.682;2023-12-22T02:51:40;100145.38;;;7.65;100.00
64095;BME280;50353;51.420;5.682;2023-12-22T02:54:06;100128.00;;;7.77;100.00
64095;BME280;50353;51.420;5.682;2023-12-22T02:56:31;100132.00;;;7.54;100.00
64095;BME280;50353;51.420;5.682;2023-12-22T02:58:56;100114.69;;;7.50;100.00
64095;BME280;50353;51.420;5.682;2023-12-22T03:01:22;100131.38;;;7.34;100.00
64095;BME280;50353;51.420;5.682;2023-12-22T03:03:47;100126.41;;;7.30;100.00
64095;BME280;50353;51.420;5.682;2023-12-22T03:06:12;100113.16;;;7.31;100.00
64095;BME280;50353;51.420;5.682;2023-12-22T03:08:37;100120.78;;;7.05;100.00
64095;BME280;50353;51.420;5.682;2023-12-22T03:11:03;100129.59;;;7.04;100.00
64095;BME280;50353;51.420;5.682;2023-12-22T03:13:28;100125.25;;;7.03;100.00
64095;BME280;50353;51.420;5.682;2023-12-22T03:15:53;100126.28;;;7.01;100.00
64095;BME280;50353;51.420;5.682;2023-12-22T03:18:19;100125.09;;;7.06;100.00
64095;BME280;50353;51.420;5.682;2023-12-22T03:20:44;100120.25;;;7.15;100.00
64095;BME280;50353;51.420;5.682;2023-12-22T03:23:09;100115.84;;;6.99;100.00
64095;BME280;50353;51.420;5.682;2023-12-22T03:25:35;100116.56;;;6.87;100.00
64095;BME280;50353;51.420;5.682;2023-12-22T03:28:00;100121.66;;;6.90;100.00
64095;BME280;50353;51.420;5.682;2023-12-22T03:30:25;100118.16;;;6.89;100.00
64095;BME280;50353;51.420;5.682;2023-12-22T03:32:50;100122.06;;;6.98;100.00
64095;BME280;50353;51.420;5.682;2023-12-22T03:35:16;100129.59;;;6.88;100.00
64095;BME280;50353;51.420;5.682;2023-12-22T03:37:41;100122.91;;;6.99;100.00
64095;BME280;50353;51.420;5.682;2023-12-22T03:40:07;100128.94;;;6.69;100.00
64095;BME280;50353;51.420;5.682;2023-12-22T03:42:33;100118.00;;;6.92;100.00
64095;BME280;50353;51.420;5.682;2023-12-22T03:44:58;100128.84;;;6.86;100.00
64095;BME280;50353;51.420;5.682;2023-12-22T03:47:23;100141.06;;;6.71;100.00
64095;BME280;50353;51.420;5.682;2023-12-22T03:49:49;100144.84;;;6.98;100.00
64095;BME280;50353;51.420;5.682;2023-12-22T03:52:14;100142.00;;;7.02;100.00
64095;BME280;50353;51.420;5.682;2023-12-22T03:54:39;100147.66;;;7.10;100.00
64095;BME280;50353;51.420;5.682;2023-12-22T03:57:05;100140.25;;;7.17;100.00
64095;BME280;50353;51.420;5.682;2023-12-22T03:59:30;100149.16;;;7.15;100.00
64095;BME280;50353;51.420;5.682;2023-12-22T04:01:55;100138.88;;;7.26;100.00
64095;BME280;50353;51.420;5.682;2023-12-22T04:04:22;100137.03;;;7.42;100.00
64095;BME280;50353;51.420;5.682;2023-12-22T04:06:48;100135.13;;;7.30;100.00
64095;BME280;50353;51.420;5.682;2023-12-22T04:09:13;100135.94;;;7.47;100.00
64095;BME280;50353;51.420;5.682;2023-12-22T04:11:39;100138.06;;;7.40;100.00
64095;BME280;50353;51.420;5.682;2023-12-22T04:14:05;100146.88;;;7.69;100.00
64095;BME280;50353;51.420;5.682;2023-12-22T04:16:30;100137.66;;;7.62;100.00
64095;BME280;50353;51.420;5.682;2023-12-22T04:18:56;100144.25;;;7.69;100.00
64095;BME280;50353;51.420;5.682;2023-12-22T04:21:21;100144.50;;;7.65;100.00
64095;BME280;50353;51.420;5.682;2023-12-22T04:23:46;100143.31;;;7.85;100.00
64095;BME280;50353;51.420;5.682;2023-12-22T04:26:11;100139.19;;;7.81;100.00
64095;BME280;50353;51.420;5.682;2023-12-22T04:28:37;100145.13;;;7.99;100.00
64095;BME280;50353;51.420;5.682;2023-12-22T04:31:02;100150.59;;;8.10;100.00
64095;BME280;50353;51.420;5.682;2023-12-22T04:33:28;100150.22;;;8.02;100.00
64095;BME280;50353;51.420;5.682;2023-12-22T04:35:53;100145.13;;;7.99;100.00
64095;BME280;50353;51.420;5.682;2023-12-22T04:38:19;100155.19;;;8.06;100.00
64095;BME280;50353;51.420;5.682;2023-12-22T04:40:44;100150.22;;;8.16;100.00
64095;BME280;50353;51.420;5.682;2023-12-22T04:43:09;100161.41;;;8.20;100.00
64095;BME280;50353;51.420;5.682;2023-12-22T04:45:35;100159.50;;;7.93;100.00
64095;BME280;50353;51.420;5.682;2023-12-22T04:48:00;100167.53;;;8.06;100.00
64095;BME280;50353;51.420;5.682;2023-12-22T04:50:25;100167.78;;;8.30;100.00
64095;BME280;50353;51.420;5.682;2023-12-22T04:52:51;100169.13;;;8.37;100.00
64095;BME280;50353;51.420;5.682;2023-12-22T04:55:16;100173.16;;;8.14;100.00
64095;BME280;50353;51.420;5.682;2023-12-22T04:57:41;100180.56;;;8.22;100.00
64095;BME280;50353;51.420;5.682;2023-12-22T05:00:07;100176.81;;;8.26;100.00
64095;BME280;50353;51.420;5.682;2023-12-22T05:02:33;100169.38;;;8.04;100.00
64095;BME280;50353;51.420;5.682;2023-12-22T05:04:58;100170.59;;;7.98;100.00
64095;BME280;50353;51.420;5.682;2023-12-22T05:07:23;100181.41;;;8.08;100.00
64095;BME280;50353;51.420;5.682;2023-12-22T05:09:49;100194.47;;;8.09;100.00
64095;BME280;50353;51.420;5.682;2023-12-22T05:12:14;100190.81;;;8.12;100.00
64095;BME280;50353;51.420;5.682;2023-12-22T05:14:39;100198.16;;;8.21;100.00
64095;BME280;50353;51.420;5.682;2023-12-22T05:17:04;100201.81;;;8.04;100.00
64095;BME280;50353;51.420;5.682;2023-12-22T05:19:30;100204.47;;;8.19;100.00
64095;BME280;50353;51.420;5.682;2023-12-22T05:21:55;100188.00;;;8.15;100.00
64095;BME280;50353;51.420;5.682;2023-12-22T05:24:25;100180.13;;;8.29;100.00
64095;BME280;50353;51.420;5.682;2023-12-22T05:26:50;100179.28;;;8.29;100.00
64095;BME280;50353;51.420;5.682;2023-12-22T05:29:15;100177.19;;;8.34;100.00
64095;BME280;50353;51.420;5.682;2023-12-22T05:31:41;100190.94;;;8.25;100.00
64095;BME280;50353;51.420;5.682;2023-12-22T05:34:06;100187.06;;;8.02;100.00
64095;BME280;50353;51.420;5.682;2023-12-22T05:36:33;100178.50;;;7.98;100.00
64095;BME280;50353;51.420;5.682;2023-12-22T05:38:58;100196.56;;;8.19;100.00
64095;BME280;50353;51.420;5.682;2023-12-22T05:41:23;100189.59;;;8.03;100.00
64095;BME280;50353;51.420;5.682;2023-12-22T05:43:49;100195.75;;;7.88;100.00
64095;BME280;50353;51.420;5.682;2023-12-22T05:46:14;100208.97;;;8.02;100.00
64095;BME280;50353;51.420;5.682;2023-12-22T05:48:39;100189.31;;;7.93;100.00
64095;BME280;50353;51.420;5.682;2023-12-22T05:51:05;100184.13;;;7.92;100.00
64095;BME280;50353;51.420;5.682;2023-12-22T05:53:33;100189.56;;;7.74;100.00
64095;BME280;50353;51.420;5.682;2023-12-22T05:55:58;100180.72;;;7.75;100.00
64095;BME280;50353;51.420;5.682;2023-12-22T05:58:24;100184.00;;;7.79;100.00
64095;BME280;50353;51.420;5.682;2023-12-22T06:00:49;100186.19;;;8.01;100.00
64095;BME280;50353;51.420;5.682;2023-12-22T06:03:14;100174.94;;;7.99;100.00
64095;BME280;50353;51.420;5.682;2023-12-22T06:05:39;100196.38;;;8.07;100.00
64095;BME280;50353;51.420;5.682;2023-12-22T06:08:05;100190.81;;;7.98;100.00
64095;BME280;50353;51.420;5.682;2023-12-22T06:10:30;100193.31;;;7.85;100.00
64095;BME280;50353;51.420;5.682;2023-12-22T06:12:56;100190.81;;;8.12;100.00
64095;BME280;50353;51.420;5.682;2023-12-22T06:15:23;100197.22;;;7.93;100.00
64095;BME280;50353;51.420;5.682;2023-12-22T06:17:48;100195.84;;;7.86;100.00
64095;BME280;50353;51.420;5.682;2023-12-22T06:20:13;100208.56;;;7.94;100.00
64095;BME280;50353;51.420;5.682;2023-12-22T06:22:39;100204.72;;;8.00;100.00
64095;BME280;50353;51.420;5.682;2023-12-22T06:25:04;100203.50;;;8.05;100.00
64095;BME280;50353;51.420;5.682;2023-12-22T06:27:33;100204.03;;;7.82;100.00
64095;BME280;50353;51.420;5.682;2023-12-22T06:29:58;100203.09;;;7.83;100.00
64095;BME280;50353;51.420;5.682;2023-12-22T06:32:23;100193.34;;;7.99;100.00
64095;BME280;50353;51.420;5.682;2023-12-22T06:34:49;100187.31;;;7.97;100.00
64095;BME280;50353;51.420;5.682;2023-12-22T06:37:15;100191.66;;;7.98;100.00
64095;BME280;50353;51.420;5.682;2023-12-22T06:39:40;100194.78;;;8.05;100.00
64095;BME280;50353;51.420;5.682;2023-12-22T06:42:05;100193.72;;;7.93;100.00
64095;BME280;50353;51.420;5.682;2023-12-22T06:44:36;100207.44;;;7.98;100.00
64095;BME280;50353;51.420;5.682;2023-12-22T06:47:01;100226.47;;;8.32;100.00
64095;BME280;50353;51.420;5.682;2023-12-22T06:49:26;100227.47;;;8.15;100.00
64095;BME280;50353;51.420;5.682;2023-12-22T06:51:52;100221.78;;;8.23;100.00
64095;BME280;50353;51.420;5.682;2023-12-22T06:54:17;100218.19;;;8.09;100.00
64095;BME280;50353;51.420;5.682;2023-12-22T06:56:42;100217.34;;;8.23;100.00
64095;BME280;50353;51.420;5.682;2023-12-22T06:59:07;100199.00;;;8.22;100.00
64095;BME280;50353;51.420;5.682;2023-12-22T07:01:36;100187.91;;;8.31;100.00
64095;BME280;50353;51.420;5.682;2023-12-22T07:04:03;100202.59;;;8.21;100.00
64095;BME280;50353;51.420;5.682;2023-12-22T07:06:30;100197.63;;;8.45;100.00
64095;BME280;50353;51.420;5.682;2023-12-22T07:11:37;100206.34;;;8.31;100.00
64095;BME280;50353;51.420;5.682;2023-12-22T07:14:02;100201.72;;;8.20;100.00
64095;BME280;50353;51.420;5.682;2023-12-22T07:16:27;100203.72;;;8.17;100.00
64095;BME280;50353;51.420;5.682;2023-12-22T07:18:53;100204.94;;;8.25;100.00
64095;BME280;50353;51.420;5.682;2023-12-22T07:21:18;100207.03;;;8.35;100.00
64095;BME280;50353;51.420;5.682;2023-12-22T07:23:44;100196.69;;;8.46;100.00
64095;BME280;50353;51.420;5.682;2023-12-22T07:26:09;100204.00;;;8.26;100.00
64095;BME280;50353;51.420;5.682;2023-12-22T07:28:35;100189.22;;;8.38;100.00
64095;BME280;50353;51.420;5.682;2023-12-22T07:31:00;100191.59;;;8.43;100.00
64095;BME280;50353;51.420;5.682;2023-12-22T07:33:25;100188.97;;;8.57;100.00
64095;BME280;50353;51.420;5.682;2023-12-22T07:35:51;100184.56;;;8.58;100.00
64095;BME280;50353;51.420;5.682;2023-12-22T07:38:16;100190.09;;;8.53;100.00
64095;BME280;50353;51.420;5.682;2023-12-22T07:40:41;100193.59;;;8.54;100.00
64095;BME280;50353;51.420;5.682;2023-12-22T07:43:07;100189.31;;;8.66;100.00
64095;BME280;50353;51.420;5.682;2023-12-22T07:45:33;100186.63;;;8.67;100.00
64095;BME280;50353;51.420;5.682;2023-12-22T07:47:59;100193.28;;;8.73;100.00
64095;BME280;50353;51.420;5.682;2023-12-22T07:50:24;100185.03;;;8.50;100.00
64095;BME280;50353;51.420;5.682;2023-12-22T07:52:49;100187.56;;;8.52;100.00
64095;BME280;50353;51.420;5.682;2023-12-22T07:55:15;100184.72;;;8.69;100.00
64095;BME280;50353;51.420;5.682;2023-12-22T07:57:40;100186.25;;;8.59;100.00
64095;BME280;50353;51.420;5.682;2023-12-22T08:00:06;100188.22;;;8.55;100.00
64095;BME280;50353;51.420;5.682;2023-12-22T08:02:32;100181.41;;;8.80;100.00
64095;BME280;50353;51.420;5.682;2023-12-22T08:04:57;100186.69;;;8.66;100.00
64095;BME280;50353;51.420;5.682;2023-12-22T08:07:23;100191.31;;;8.62;100.00
64095;BME280;50353;51.420;5.682;2023-12-22T08:09:48;100189.06;;;8.70;100.00
64095;BME280;50353;51.420;5.682;2023-12-22T08:12:13;100184.25;;;8.77;100.00
64095;BME280;50353;51.420;5.682;2023-12-22T08:14:39;100186.22;;;8.73;100.00
64095;BME280;50353;51.420;5.682;2023-12-22T08:17:04;100183.03;;;8.68;100.00
64095;BME280;50353;51.420;5.682;2023-12-22T08:19:29;100186.78;;;8.78;100.00
64095;BME280;50353;51.420;5.682;2023-12-22T08:21:55;100174.88;;;9.00;100.00
64095;BME280;50353;51.420;5.682;2023-12-22T08:24:21;100187.97;;;8.87;100.00
64095;BME280;50353;51.420;5.682;2023-12-22T08:26:46;100181.78;;;8.88;100.00
64095;BME280;50353;51.420;5.682;2023-12-22T08:29:11;100186.69;;;8.66;100.00
64095;BME280;50353;51.420;5.682;2023-12-22T08:31:37;100186.78;;;8.78;100.00
64095;BME280;50353;51.420;5.682;2023-12-22T08:34:02;100176.63;;;8.72;100.00
64095;BME280;50353;51.420;5.682;2023-12-22T08:36:28;100178.66;;;8.82;100.00
64095;BME280;50353;51.420;5.682;2023-12-22T08:38:53;100175.75;;;8.86;100.00
64095;BME280;50353;51.420;5.682;2023-12-22T08:41:18;100180.94;;;8.73;100.00
64095;BME280;50353;51.420;5.682;2023-12-22T08:43:44;100183.94;;;8.82;100.00
64095;BME280;50353;51.420;5.682;2023-12-22T08:46:09;100176.03;;;8.82;100.00
64095;BME280;50353;51.420;5.682;2023-12-22T08:48:35;100172.03;;;9.03;100.00
64095;BME280;50353;51.420;5.682;2023-12-22T08:51:00;100170.56;;;8.85;100.00
64095;BME280;50353;51.420;5.682;2023-12-22T08:53:26;100170.97;;;8.78;100.00
64095;BME280;50353;51.420;5.682;2023-12-22T08:55:51;100161.34;;;8.92;100.00
64095;BME280;50353;51.420;5.682;2023-12-22T08:58:17;100147.72;;;8.85;100.00
64095;BME280;50353;51.420;5.682;2023-12-22T09:00:42;100150.09;;;9.03;100.00
64095;BME280;50353;51.420;5.682;2023-12-22T09:03:08;100166.00;;;9.01;100.00
64095;BME280;50353;51.420;5.682;2023-12-22T09:05:33;100147.59;;;9.14;100.00
64095;BME280;50353;51.420;5.682;2023-12-22T09:07:58;100167.13;;;8.97;100.00
64095;BME280;50353;51.420;5.682;2023-12-22T09:10:24;100144.84;;;9.03;100.00
64095;BME280;50353;51.420;5.682;2023-12-22T09:12:50;100146.84;;;8.85;100.00
64095;BME280;50353;51.420;5.682;2023-12-22T09:15:16;100158.53;;;8.80;100.00
64095;BME280;50353;51.420;5.682;2023-12-22T09:17:41;100162.19;;;8.78;100.00
64095;BME280;50353;51.420;5.682;2023-12-22T09:20:07;100175.00;;;8.84;100.00
64095;BME280;50353;51.420;5.682;2023-12-22T09:22:33;100175.00;;;8.84;100.00
64095;BME280;50353;51.420;5.682;2023-12-22T09:24:58;100166.75;;;8.76;100.00
64095;BME280;50353;51.420;5.682;2023-12-22T09:27:24;100166.75;;;9.03;100.00
64095;BME280;50353;51.420;5.682;2023-12-22T09:29:54;100170.44;;;9.01;100.00
64095;BME280;50353;51.420;5.682;2023-12-22T09:32:19;100163.63;;;9.11;100.00
64095;BME280;50353;51.420;5.682;2023-12-22T09:34:44;100160.38;;;9.20;100.00
64095;BME280;50353;51.420;5.682;2023-12-22T09:37:09;100155.06;;;9.07;100.00
64095;BME280;50353;51.420;5.682;2023-12-22T09:39:35;100143.00;;;9.18;100.00
64095;BME280;50353;51.420;5.682;2023-12-22T09:42:00;100152.44;;;9.07;100.00
64095;BME280;50353;51.420;5.682;2023-12-22T09:44:29;100150.69;;;9.21;100.00
64095;BME280;50353;51.420;5.682;2023-12-22T09:46:57;100143.88;;;9.04;100.00
64095;BME280;50353;51.420;5.682;2023-12-22T09:49:24;100147.81;;;9.11;100.00
64095;BME280;50353;51.420;5.682;2023-12-22T09:51:51;100143.16;;;9.14;100.00
64095;BME280;50353;51.420;5.682;2023-12-22T09:54:16;100146.47;;;9.31;100.00
64095;BME280;50353;51.420;5.682;2023-12-22T09:56:42;100147.78;;;9.38;100.00
64095;BME280;50353;51.420;5.682;2023-12-22T09:59:12;100143.19;;;9.55;100.00
64095;BME280;50353;51.420;5.682;2023-12-22T10:01:42;100123.00;;;9.54;100.00
64095;BME280;50353;51.420;5.682;2023-12-22T10:04:09;100143.19;;;9.68;100.00
64095;BME280;50353;51.420;5.682;2023-12-22T10:06:35;100124.72;;;9.55;100.00
64095;BME280;50353;51.420;5.682;2023-12-22T10:09:01;100145.47;;;9.46;100.00
64095;BME280;50353;51.420;5.682;2023-12-22T10:11:31;100137.91;;;9.55;100.00
64095;BME280;50353;51.420;5.682;2023-12-22T10:14:02;100145.81;;;9.55;100.00
64095;BME280;50353;51.420;5.682;2023-12-22T10:16:28;100128.72;;;9.73;100.00
64095;BME280;50353;51.420;5.682;2023-12-22T10:18:53;100125.03;;;9.76;100.00
64095;BME280;50353;51.420;5.682;2023-12-22T10:21:19;100122.53;;;9.87;100.00
64095;BME280;50353;51.420;5.682;2023-12-22T10:23:44;100124.81;;;9.66;100.00
64095;BME280;50353;51.420;5.682;2023-12-22T10:26:13;100123.75;;;9.81;100.00
64095;BME280;50353;51.420;5.682;2023-12-22T10:28:38;100120.72;;;9.75;100.00
64095;BME280;50353;51.420;5.682;2023-12-22T10:31:03;100124.19;;;9.75;100.00
64095;BME280;50353;51.420;5.682;2023-12-22T10:33:32;100121.66;;;10.00;100.00
64095;BME280;50353;51.420;5.682;2023-12-22T10:36:01;100125.66;;;10.05;100.00
64095;BME280;50353;51.420;5.682;2023-12-22T10:38:36;100106.97;;;10.21;100.00
64095;BME280;50353;51.420;5.682;2023-12-22T10:41:05;100130.31;;;10.14;100.00
64095;BME280;50353;51.420;5.682;2023-12-22T10:43:36;100117.63;;;10.07;100.00
64095;BME280;50353;51.420;5.682;2023-12-22T10:46:03;100119.63;;;10.03;100.00
64095;BME280;50353;51.420;5.682;2023-12-22T10:48:28;100103.56;;;10.19;100.00
64095;BME280;50353;51.420;5.682;2023-12-22T10:50:54;100119.63;;;10.42;100.00
64095;BME280;50353;51.420;5.682;2023-12-22T10:53:21;100132.72;;;10.18;100.00
64095;BME280;50353;51.420;5.682;2023-12-22T10:55:46;100136.03;;;10.21;100.00
64095;BME280;50353;51.420;5.682;2023-12-22T10:58:16;100120.59;;;10.15;100.00
64095;BME280;50353;51.420;5.682;2023-12-22T11:00:44;100125.84;;;10.41;100.00
64095;BME280;50353;51.420;5.682;2023-12-22T11:03:13;100125.16;;;10.63;100.00
64095;BME280;50353;51.420;5.682;2023-12-22T11:05:44;100112.84;;;10.25;100.00
64095;BME280;50353;51.420;5.682;2023-12-22T11:08:11;100121.31;;;10.30;100.00
64095;BME280;50353;51.420;5.682;2023-12-22T11:10:41;100109.19;;;10.40;100.00
64095;BME280;50353;51.420;5.682;2023-12-22T11:13:08;100092.81;;;10.35;100.00
64095;BME280;50353;51.420;5.682;2023-12-22T11:15:34;100107.44;;;10.52;100.00
64095;BME280;50353;51.420;5.682;2023-12-22T11:18:01;100113.34;;;10.56;100.00
64095;BME280;50353;51.420;5.682;2023-12-22T11:20:27;100116.13;;;10.54;100.00
64095;BME280;50353;51.420;5.682;2023-12-22T11:22:54;100086.09;;;10.55;100.00
64095;BME280;50353;51.420;5.682;2023-12-22T11:25:23;100108.50;;;10.49;100.00
64095;BME280;50353;51.420;5.682;2023-12-22T11:27:52;100110.34;;;10.36;100.00
64095;BME280;50353;51.420;5.682;2023-12-22T11:30:18;100108.66;;;10.35;100.00
64095;BME280;50353;51.420;5.682;2023-12-22T11:32:45;100113.00;;;10.36;100.00
64095;BME280;50353;51.420;5.682;2023-12-22T11:35:11;100118.06;;;10.39;100.00
64095;BME280;50353;51.420;5.682;2023-12-22T11:37:37;100099.09;;;10.45;100.00
64095;BME280;50353;51.420;5.682;2023-12-22T11:40:03;100089.06;;;10.51;100.00
64095;BME280;50353;51.420;5.682;2023-12-22T11:42:31;100097.03;;;10.62;100.00
64095;BME280;50353;51.420;5.682;2023-12-22T11:44:58;100105.09;;;10.60;100.00
64095;BME280;50353;51.420;5.682;2023-12-22T11:47:24;100111.22;;;10.61;100.00
64095;BME280;50353;51.420;5.682;2023-12-22T11:49:50;100091.56;;;10.52;100.00
64095;BME280;50353;51.420;5.682;2023-12-22T11:52:17;100073.59;;;10.57;100.00
64095;BME280;50353;51.420;5.682;2023-12-22T11:54:53;100087.31;;;10.62;100.00
64095;BME280;50353;51.420;5.682;2023-12-22T11:59:58;100078.00;;;10.94;100.00
64095;BME280;50353;51.420;5.682;2023-12-22T12:02:25;100070.31;;;10.54;100.00
64095;BME280;50353;51.420;5.682;2023-12-22T12:04:51;100084.03;;;10.72;100.00
64095;BME280;50353;51.420;5.682;2023-12-22T12:07:37;100071.63;;;10.72;100.00
64095;BME280;50353;51.420;5.682;2023-12-22T12:10:04;100062.13;;;10.70;100.00
64095;BME280;50353;51.420;5.682;2023-12-22T12:12:30;100085.75;;;10.84;100.00
64095;BME280;50353;51.420;5.682;2023-12-22T12:14:58;100080.41;;;10.73;100.00
64095;BME280;50353;51.420;5.682;2023-12-22T12:17:27;100083.00;;;10.86;100.00
64095;BME280;50353;51.420;5.682;2023-12-22T12:19:54;100068.09;;;10.36;100.00
64095;BME280;50353;51.420;5.682;2023-12-22T12:22:19;100056.03;;;10.56;100.00
64095;BME280;50353;51.420;5.682;2023-12-22T12:24:49;100083.56;;;10.28;100.00
64095;BME280;50353;51.420;5.682;2023-12-22T12:27:19;100088.44;;;10.34;100.00
64095;BME280;50353;51.420;5.682;2023-12-22T12:29:45;100070.28;;;10.17;100.00
64095;BME280;50353;51.420;5.682;2023-12-22T12:32:13;100061.44;;;10.55;100.00
64095;BME280;50353;51.420;5.682;2023-12-22T12:34:42;100053.69;;;10.40;100.00
64095;BME280;50353;51.420;5.682;2023-12-22T12:37:09;100059.25;;;10.48;100.00
64095;BME280;50353;51.420;5.682;2023-12-22T12:39:37;100053.56;;;10.66;100.00
64095;BME280;50353;51.420;5.682;2023-12-22T12:42:07;100062.75;;;10.73;100.00
64095;BME280;50353;51.420;5.682;2023-12-22T12:44:33;100048.75;;;10.60;100.00
64095;BME280;50353;51.420;5.682;2023-12-22T12:47:11;100061.84;;;10.61;100.00
64095;BME280;50353;51.420;5.682;2023-12-22T12:49:36;100045.31;;;10.71;100.00